createdAt,value
2023-05-07T00:01:40.078Z,6.10
2023-05-07T00:04:08.803Z,11.65
2023-05-07T00:06:35.951Z,7.93
2023-05-07T00:09:03.761Z,5.95
2023-05-07T00:11:30.773Z,4.40
2023-05-07T00:13:57.781Z,7.65
2023-05-07T00:16:24.965Z,5.22
2023-05-07T00:18:52.034Z,5.63
2023-05-07T00:21:19.003Z,6.22
2023-05-07T00:23:45.985Z,4.70
2023-05-07T00:26:12.972Z,7.38
2023-05-07T00:28:42.033Z,4.13
2023-05-07T00:31:10.030Z,5.68
2023-05-07T00:33:37.022Z,5.53
2023-05-07T00:36:04.539Z,6.53
2023-05-07T00:38:31.999Z,8.75
2023-05-07T00:40:58.985Z,3.78
2023-05-07T00:43:26.092Z,7.68
2023-05-07T00:45:53.222Z,8.38
2023-05-07T00:48:20.544Z,8.13
2023-05-07T00:50:48.772Z,6.60
2023-05-07T00:53:15.850Z,4.40
2023-05-07T00:55:43.367Z,7.40
2023-05-07T00:58:10.506Z,7.53
2023-05-07T01:00:37.857Z,5.85
2023-05-07T01:03:05.978Z,10.57
2023-05-07T01:05:33.854Z,7.57
2023-05-07T01:08:03.330Z,9.07
2023-05-07T01:10:31.706Z,4.80
2023-05-07T01:13:01.312Z,4.07
2023-05-07T01:15:28.622Z,5.18
2023-05-07T01:17:58.208Z,6.70
2023-05-07T01:20:34.185Z,6.63
2023-05-07T01:23:02.566Z,5.57
2023-05-07T01:25:30.057Z,6.75
2023-05-07T01:28:02.237Z,5.72
2023-05-07T01:30:34.067Z,7.82
2023-05-07T01:33:10.632Z,5.30
2023-05-07T01:39:00.173Z,8.32
2023-05-07T01:41:27.752Z,7.82
2023-05-07T01:43:56.349Z,7.72
2023-05-07T01:46:23.584Z,4.63
2023-05-07T01:48:51.393Z,11.18
2023-05-07T01:51:18.623Z,5.88
2023-05-07T01:53:46.789Z,4.20
2023-05-07T01:56:13.833Z,5.50
2023-05-07T01:58:42.908Z,7.03
2023-05-07T02:01:09.905Z,12.23
2023-05-07T02:03:37.799Z,6.80
2023-05-07T02:06:12.113Z,6.00
2023-05-07T02:08:40.585Z,6.60
2023-05-07T02:11:07.628Z,7.13
2023-05-07T02:13:36.202Z,11.68
2023-05-07T02:16:03.636Z,5.72
2023-05-07T02:18:31.023Z,8.38
2023-05-07T02:20:58.008Z,9.25
2023-05-07T02:23:25.040Z,5.28
2023-05-07T02:25:52.622Z,5.22
2023-05-07T02:28:19.913Z,5.20
2023-05-07T02:31:07.141Z,10.88
2023-05-07T02:33:36.318Z,4.60
2023-05-07T02:36:12.554Z,3.05
2023-05-07T02:38:48.451Z,5.57
2023-05-07T02:41:15.483Z,7.43
2023-05-07T02:43:42.469Z,5.78
2023-05-07T02:46:10.889Z,4.88
2023-05-07T02:48:41.763Z,6.93
2023-05-07T02:51:08.799Z,5.10
2023-05-07T02:53:37.836Z,5.13
2023-05-07T02:56:05.165Z,5.53
2023-05-07T02:58:32.167Z,4.03
2023-05-07T03:01:01.196Z,8.00
2023-05-07T03:03:51.125Z,8.00
2023-05-07T03:06:18.080Z,6.15
2023-05-07T03:08:45.004Z,6.05
2023-05-07T03:11:12.097Z,8.80
2023-05-07T03:13:39.040Z,5.93
2023-05-07T03:16:06.485Z,4.88
2023-05-07T03:18:33.615Z,8.20
2023-05-07T03:21:01.066Z,5.07
2023-05-07T03:23:28.082Z,5.03
2023-05-07T03:25:55.000Z,9.02
2023-05-07T03:28:22.076Z,4.35
2023-05-07T03:30:57.509Z,5.57
2023-05-07T03:33:24.778Z,6.40
2023-05-07T03:35:51.887Z,3.95
2023-05-07T03:38:23.461Z,5.82
2023-05-07T03:40:50.817Z,5.07
2023-05-07T03:43:18.421Z,6.53
2023-05-07T03:45:50.598Z,7.13
2023-05-07T03:48:22.444Z,3.10
2023-05-07T03:50:51.557Z,5.15
2023-05-07T03:53:20.388Z,5.50
2023-05-07T03:55:47.339Z,5.53
2023-05-07T03:58:14.323Z,4.53
2023-05-07T04:00:41.966Z,4.47
2023-05-07T04:03:26.603Z,4.30
2023-05-07T04:05:54.563Z,4.32
2023-05-07T04:08:21.983Z,5.85
2023-05-07T04:10:57.482Z,4.80
2023-05-07T04:13:26.904Z,7.47
2023-05-07T04:15:56.070Z,4.53
2023-05-07T04:18:25.126Z,6.75
2023-05-07T04:20:52.464Z,8.57
2023-05-07T04:23:19.511Z,5.40
2023-05-07T04:25:46.578Z,6.35
2023-05-07T04:28:45.804Z,6.97
2023-05-07T04:31:13.427Z,5.38
2023-05-07T04:33:41.359Z,4.65
2023-05-07T04:36:12.191Z,5.68
2023-05-07T04:38:47.176Z,4.65
2023-05-07T04:41:15.073Z,4.43
2023-05-07T04:43:42.764Z,4.45
2023-05-07T04:46:11.247Z,6.60
2023-05-07T04:48:38.608Z,4.68
2023-05-07T04:51:07.440Z,7.97
2023-05-07T04:53:34.476Z,4.25
2023-05-07T04:56:01.437Z,5.65
2023-05-07T04:58:35.012Z,5.43
2023-05-07T05:01:02.596Z,7.22
2023-05-07T05:03:31.109Z,6.10
2023-05-07T05:06:00.492Z,3.72
2023-05-07T05:08:31.966Z,8.15
2023-05-07T05:11:01.538Z,3.53
2023-05-07T05:13:28.892Z,7.25
2023-05-07T05:15:56.988Z,6.05
2023-05-07T05:18:25.405Z,4.75
2023-05-07T05:20:52.854Z,5.32
2023-05-07T05:23:21.117Z,5.32
2023-05-07T05:25:48.555Z,6.60
2023-05-07T05:28:16.505Z,4.60
2023-05-07T05:30:43.479Z,3.00
2023-05-07T05:33:10.578Z,4.95
2023-05-07T05:35:37.650Z,5.25
2023-05-07T05:38:10.000Z,6.35
2023-05-07T05:40:37.085Z,4.43
2023-05-07T05:43:04.246Z,6.00
2023-05-07T05:45:32.079Z,4.97
2023-05-07T05:47:59.070Z,5.32
2023-05-07T05:50:26.457Z,3.88
2023-05-07T05:52:54.367Z,5.22
2023-05-07T05:55:22.887Z,3.90
2023-05-07T05:57:51.070Z,7.07
2023-05-07T06:00:18.810Z,8.25
2023-05-07T06:02:46.111Z,5.90
2023-05-07T06:05:18.242Z,5.35
2023-05-07T06:07:46.584Z,8.80
2023-05-07T06:10:13.963Z,6.07
2023-05-07T06:12:41.804Z,6.38
2023-05-07T06:15:09.035Z,6.95
2023-05-07T06:17:36.548Z,9.95
2023-05-07T06:20:03.672Z,5.63
2023-05-07T06:22:30.680Z,6.90
2023-05-07T06:24:57.760Z,9.43
2023-05-07T06:27:24.870Z,9.80
2023-05-07T06:29:52.581Z,9.70
2023-05-07T06:32:20.134Z,4.07
2023-05-07T06:34:47.425Z,9.00
2023-05-07T06:37:15.768Z,4.80
2023-05-07T06:40:15.320Z,8.60
2023-05-07T06:42:44.013Z,5.97
2023-05-07T06:45:24.975Z,5.70
2023-05-07T06:47:54.652Z,6.03
2023-05-07T06:50:22.869Z,4.05
2023-05-07T06:52:59.512Z,2.45
2023-05-07T06:55:26.743Z,10.68
2023-05-07T06:57:54.507Z,6.53
2023-05-07T07:00:23.562Z,8.68
2023-05-07T07:02:55.801Z,7.88
2023-05-07T07:05:25.761Z,12.75
2023-05-07T07:07:56.064Z,6.70
2023-05-07T07:10:23.737Z,7.95
2023-05-07T07:12:53.585Z,10.93
2023-05-07T07:15:21.855Z,7.20
2023-05-07T07:17:50.364Z,6.85
2023-05-07T07:20:17.782Z,7.15
2023-05-07T07:22:46.040Z,8.30
2023-05-07T07:25:13.947Z,6.53
2023-05-07T07:27:41.106Z,6.07
2023-05-07T07:30:09.573Z,9.73
2023-05-07T07:32:39.498Z,7.85
2023-05-07T07:35:07.250Z,12.38
2023-05-07T07:37:34.708Z,8.10
2023-05-07T07:40:01.929Z,8.55
2023-05-07T07:42:30.276Z,8.65
2023-05-07T07:44:58.605Z,8.95
2023-05-07T07:47:28.912Z,10.65
2023-05-07T07:49:56.547Z,8.73
2023-05-07T07:52:23.594Z,5.45
2023-05-07T07:54:50.654Z,10.27
2023-05-07T07:57:17.605Z,4.15
2023-05-07T07:59:44.695Z,4.93
2023-05-07T08:02:13.845Z,7.35
2023-05-07T08:04:41.620Z,8.52
2023-05-07T08:07:09.278Z,5.15
2023-05-07T08:09:40.555Z,7.30
2023-05-07T08:12:08.512Z,6.82
2023-05-07T08:14:37.441Z,3.47
2023-05-07T08:17:06.731Z,5.05
2023-05-07T08:19:35.539Z,7.50
2023-05-07T08:22:05.550Z,5.32
2023-05-07T08:24:34.270Z,7.03
2023-05-07T08:27:01.535Z,8.73
2023-05-07T08:29:28.655Z,6.30
2023-05-07T08:31:55.754Z,8.27
2023-05-07T08:34:23.749Z,13.23
2023-05-07T08:36:53.156Z,11.02
2023-05-07T08:39:23.449Z,9.60
2023-05-07T08:41:59.917Z,13.10
2023-05-07T08:44:29.273Z,8.60
2023-05-07T08:46:58.932Z,6.57
2023-05-07T08:49:26.804Z,8.05
2023-05-07T08:51:54.791Z,8.25
2023-05-07T08:54:22.609Z,9.95
2023-05-07T08:56:49.977Z,8.30
2023-05-07T08:59:17.123Z,7.00
2023-05-07T09:01:45.962Z,5.18
2023-05-07T09:04:14.387Z,8.98
2023-05-07T09:06:43.071Z,6.20
2023-05-07T09:09:18.502Z,9.70
2023-05-07T09:11:46.071Z,7.65
2023-05-07T09:14:15.412Z,7.35
2023-05-07T09:16:44.824Z,8.93
2023-05-07T09:19:12.184Z,9.55
2023-05-07T09:21:45.504Z,4.38
2023-05-07T09:24:16.426Z,7.40
2023-05-07T09:26:44.257Z,5.90
2023-05-07T09:29:12.057Z,7.03
2023-05-07T09:31:40.331Z,6.85
2023-05-07T09:34:10.526Z,5.72
2023-05-07T09:36:41.018Z,6.07
2023-05-07T09:39:08.341Z,7.75
2023-05-07T09:41:45.507Z,7.28
2023-05-07T09:44:23.080Z,6.57
2023-05-07T09:46:55.976Z,7.25
2023-05-07T09:49:31.384Z,10.82
2023-05-07T09:52:11.303Z,9.43
2023-05-07T09:54:45.340Z,7.80
2023-05-07T09:57:15.861Z,7.47
2023-05-07T09:59:48.084Z,3.63
2023-05-07T10:02:20.134Z,5.85
2023-05-07T10:04:52.004Z,5.25
2023-05-07T10:07:24.379Z,5.88
2023-05-07T10:09:55.678Z,4.70
2023-05-07T10:12:31.192Z,5.85
2023-05-07T10:14:58.818Z,9.23
2023-05-07T10:17:26.911Z,5.85
2023-05-07T10:19:55.027Z,8.23
2023-05-07T10:22:24.510Z,6.22
2023-05-07T10:24:55.685Z,5.40
2023-05-07T10:27:24.890Z,7.18
2023-05-07T10:30:15.890Z,4.32
2023-05-07T10:32:51.943Z,5.07
2023-05-07T10:35:33.535Z,5.38
2023-05-07T10:38:04.220Z,4.85
2023-05-07T10:40:33.612Z,3.63
2023-05-07T10:43:07.566Z,5.95
2023-05-07T10:45:44.861Z,6.10
2023-05-07T10:51:21.376Z,3.35
2023-05-07T10:54:10.814Z,2.67
2023-05-07T10:56:44.385Z,3.33
2023-05-07T10:59:32.647Z,4.95
2023-05-07T11:02:10.965Z,2.63
2023-05-07T11:05:20.001Z,2.70
2023-05-07T11:08:01.488Z,5.60
2023-05-07T11:10:55.799Z,4.47
2023-05-07T11:13:46.494Z,2.33
2023-05-07T11:16:46.271Z,3.80
2023-05-07T11:19:55.731Z,2.45
2023-05-07T11:22:36.971Z,2.60
2023-05-07T11:25:20.262Z,3.90
2023-05-07T11:27:53.595Z,4.32
2023-05-07T11:30:21.080Z,4.43
2023-05-07T11:32:49.803Z,2.53
2023-05-07T11:35:18.348Z,6.97
2023-05-07T11:37:49.646Z,3.33
2023-05-07T11:40:17.214Z,3.08
2023-05-07T11:42:44.307Z,3.92
2023-05-07T11:45:12.078Z,2.95
2023-05-07T11:47:39.740Z,4.57
2023-05-07T11:50:11.586Z,3.17
2023-05-07T11:52:40.235Z,2.45
2023-05-07T11:55:09.202Z,3.42
2023-05-07T11:57:36.603Z,3.70
2023-05-07T12:00:05.694Z,2.28
2023-05-07T12:02:43.069Z,2.80
2023-05-07T12:05:11.071Z,3.17
2023-05-07T12:07:38.497Z,2.28
2023-05-07T12:10:07.210Z,3.45
2023-05-07T12:12:41.772Z,4.35
2023-05-07T12:15:09.954Z,2.10
2023-05-07T12:17:37.945Z,4.07
2023-05-07T12:20:06.077Z,3.30
2023-05-07T12:22:33.089Z,5.05
2023-05-07T12:25:00.754Z,3.95
2023-05-07T12:27:27.999Z,3.35
2023-05-07T12:29:55.051Z,6.82
2023-05-07T12:32:22.724Z,4.63
2023-05-07T12:34:53.468Z,3.47
2023-05-07T12:37:32.384Z,4.63
2023-05-07T12:40:11.113Z,6.10
2023-05-07T12:42:39.233Z,7.65
2023-05-07T12:45:14.340Z,4.38
2023-05-07T12:47:48.471Z,4.88
2023-05-07T12:50:16.582Z,5.80
2023-05-07T12:52:49.818Z,7.93
2023-05-07T12:55:17.848Z,10.95
2023-05-07T12:57:49.382Z,6.70
2023-05-07T13:00:17.240Z,25.92
2023-05-07T13:02:46.560Z,5.78
2023-05-07T13:05:14.156Z,7.47
2023-05-07T13:07:42.131Z,6.32
2023-05-07T13:10:10.029Z,6.07
2023-05-07T13:12:37.173Z,7.18
2023-05-07T13:15:04.489Z,8.98
2023-05-07T13:17:32.555Z,5.97
2023-05-07T13:19:59.913Z,6.63
2023-05-07T13:22:26.876Z,7.47
2023-05-07T13:24:53.919Z,6.65
2023-05-07T13:27:21.748Z,7.72
2023-05-07T13:29:48.988Z,8.23
2023-05-07T13:32:16.146Z,7.68
2023-05-07T13:34:43.216Z,7.45
2023-05-07T13:37:11.630Z,7.90
2023-05-07T13:39:39.038Z,9.30
2023-05-07T13:42:06.029Z,7.80
2023-05-07T13:44:33.021Z,6.72
2023-05-07T13:47:00.000Z,8.30
2023-05-07T13:49:26.978Z,8.27
2023-05-07T13:51:53.972Z,7.75
2023-05-07T13:54:21.248Z,9.35
2023-05-07T13:56:48.616Z,10.30
2023-05-07T13:59:15.843Z,8.48
2023-05-07T14:01:42.896Z,12.82
2023-05-07T14:04:09.904Z,9.98
2023-05-07T14:06:37.096Z,9.10
2023-05-07T14:09:04.188Z,9.50
2023-05-07T14:11:32.301Z,6.70
2023-05-07T14:14:00.959Z,6.95
2023-05-07T14:16:27.902Z,6.70
2023-05-07T14:18:57.839Z,9.13
2023-05-07T14:21:25.516Z,7.10
2023-05-07T14:23:52.544Z,10.10
2023-05-07T14:26:20.112Z,8.13
2023-05-07T14:28:47.524Z,7.55
2023-05-07T14:31:14.622Z,10.23
2023-05-07T14:33:42.329Z,7.68
2023-05-07T14:36:09.613Z,7.70
2023-05-07T14:38:36.729Z,7.45
2023-05-07T14:41:04.283Z,7.50
2023-05-07T14:43:31.281Z,7.10
2023-05-07T14:45:58.288Z,6.30
2023-05-07T14:48:25.218Z,6.10
2023-05-07T14:50:52.449Z,6.05
2023-05-07T14:53:19.370Z,5.65
2023-05-07T14:55:46.614Z,5.38
2023-05-07T14:58:13.666Z,6.20
2023-05-07T15:00:40.992Z,6.70
2023-05-07T15:03:11.326Z,8.63
2023-05-07T15:05:42.476Z,6.22
2023-05-07T15:08:09.542Z,7.13
2023-05-07T15:10:41.789Z,5.63
2023-05-07T15:13:15.903Z,5.60
2023-05-07T15:15:47.337Z,6.95
2023-05-07T15:18:15.566Z,6.13
2023-05-07T15:20:43.255Z,7.38
2023-05-07T15:23:11.048Z,6.80
2023-05-07T15:25:39.489Z,6.05
2023-05-07T15:28:06.736Z,6.03
2023-05-07T15:30:34.534Z,6.07
2023-05-07T15:33:02.638Z,7.22
2023-05-07T15:35:29.778Z,7.75
2023-05-07T15:37:56.812Z,8.73
2023-05-07T15:40:23.874Z,6.50
2023-05-07T15:42:51.033Z,7.30
2023-05-07T15:45:18.088Z,7.32
2023-05-07T15:47:45.176Z,8.07
2023-05-07T15:50:12.448Z,7.20
2023-05-07T15:52:39.776Z,8.23
2023-05-07T15:55:07.520Z,8.25
2023-05-07T15:57:34.773Z,6.50
2023-05-07T16:00:02.520Z,6.72
2023-05-07T16:02:39.837Z,6.40
2023-05-07T16:05:11.495Z,6.95
2023-05-07T16:07:39.522Z,7.22
2023-05-07T16:10:07.870Z,6.03
2023-05-07T16:12:35.004Z,8.43
2023-05-07T16:15:01.951Z,6.75
2023-05-07T16:17:29.127Z,6.05
2023-05-07T16:19:56.102Z,5.65
2023-05-07T16:22:25.116Z,8.40
2023-05-07T16:24:52.542Z,5.75
2023-05-07T16:27:19.559Z,8.48
2023-05-07T16:29:46.544Z,5.57
2023-05-07T16:32:13.492Z,5.78
2023-05-07T16:34:40.421Z,5.90
2023-05-07T16:37:07.765Z,5.72
2023-05-07T16:39:34.661Z,5.35
2023-05-07T16:42:01.909Z,4.72
2023-05-07T16:44:29.058Z,5.10
2023-05-07T16:46:56.110Z,4.88
2023-05-07T16:49:26.178Z,5.03
2023-05-07T16:51:53.865Z,7.70
2023-05-07T16:54:20.819Z,9.73
2023-05-07T16:56:48.075Z,21.42
2023-05-07T16:59:15.258Z,20.45
2023-05-07T17:01:42.956Z,18.35
2023-05-07T17:04:10.045Z,21.20
2023-05-07T17:06:37.142Z,18.92
2023-05-07T17:09:04.125Z,18.38
2023-05-07T17:11:34.126Z,24.52
2023-05-07T17:14:02.520Z,17.00
2023-05-07T17:16:31.116Z,15.23
2023-05-07T17:18:58.146Z,14.93
2023-05-07T17:21:25.456Z,17.85
2023-05-07T17:23:52.428Z,14.25
2023-05-07T17:26:19.424Z,13.40
2023-05-07T17:28:46.574Z,11.38
2023-05-07T17:31:13.854Z,12.43
2023-05-07T17:33:40.847Z,11.52
2023-05-07T17:36:08.730Z,10.43
2023-05-07T17:38:35.899Z,10.15
2023-05-07T17:41:02.977Z,8.70
2023-05-07T17:43:29.977Z,9.38
2023-05-07T17:45:56.968Z,10.27
2023-05-07T17:48:24.488Z,9.38
2023-05-07T17:50:51.601Z,8.98
2023-05-07T17:53:18.583Z,8.60
2023-05-07T17:55:46.429Z,8.32
2023-05-07T17:58:13.420Z,9.63
2023-05-07T18:00:40.763Z,9.00
2023-05-07T18:03:07.963Z,8.75
2023-05-07T18:05:37.462Z,9.18
2023-05-07T18:08:04.633Z,7.55
2023-05-07T18:10:31.777Z,7.57
2023-05-07T18:12:59.266Z,7.22
2023-05-07T18:15:26.567Z,7.18
2023-05-07T18:17:53.722Z,6.93
2023-05-07T18:20:20.929Z,8.00
2023-05-07T18:22:48.024Z,9.90
2023-05-07T18:25:15.041Z,8.38
2023-05-07T18:27:42.024Z,6.70
2023-05-07T18:30:10.193Z,7.72
2023-05-07T18:32:37.413Z,5.82
2023-05-07T18:35:05.171Z,6.18
2023-05-07T18:37:32.435Z,5.95
2023-05-07T18:40:03.674Z,7.18
2023-05-07T18:42:36.295Z,9.93
2023-05-07T18:45:04.532Z,6.30
2023-05-07T18:47:31.479Z,8.02
2023-05-07T18:49:58.474Z,6.55
2023-05-07T18:52:26.195Z,5.57
2023-05-07T18:54:53.180Z,6.70
2023-05-07T18:57:20.171Z,6.30
2023-05-07T18:59:47.250Z,7.78
2023-05-07T19:02:14.282Z,5.65
2023-05-07T19:04:41.395Z,6.38
2023-05-07T19:07:08.473Z,5.88
2023-05-07T19:09:37.072Z,6.53
2023-05-07T19:12:04.301Z,5.32
2023-05-07T19:14:31.242Z,6.70
2023-05-07T19:16:58.275Z,5.90
2023-05-07T19:19:26.847Z,5.15
2023-05-07T19:21:54.122Z,5.05
2023-05-07T19:24:21.178Z,5.65
2023-05-07T19:26:48.181Z,6.43
2023-05-07T19:29:18.000Z,6.68
2023-05-07T19:31:45.909Z,11.18
2023-05-07T19:34:16.079Z,6.68
2023-05-07T19:36:43.106Z,5.47
2023-05-07T19:39:09.997Z,6.10
2023-05-07T19:41:37.152Z,5.28
2023-05-07T19:44:04.237Z,7.40
2023-05-07T19:46:31.283Z,6.80
2023-05-07T19:48:58.462Z,7.80
2023-05-07T19:51:26.458Z,6.80
2023-05-07T19:53:53.715Z,10.23
2023-05-07T19:56:23.119Z,11.02
2023-05-07T19:58:50.997Z,6.70
2023-05-07T20:01:18.000Z,6.07
2023-05-07T20:03:45.122Z,5.65
2023-05-07T20:06:12.450Z,5.63
2023-05-07T20:08:39.516Z,7.20
2023-05-07T20:11:06.468Z,5.13
2023-05-07T20:13:33.519Z,5.78
2023-05-07T20:16:01.518Z,5.40
2023-05-07T20:18:29.129Z,8.25
2023-05-07T20:20:56.634Z,4.70
2023-05-07T20:23:23.815Z,5.50
2023-05-07T20:25:50.961Z,5.78
2023-05-07T20:28:18.355Z,6.05
2023-05-07T20:30:45.640Z,6.28
2023-05-07T20:33:13.433Z,8.68
2023-05-07T20:35:41.106Z,6.78
2023-05-07T20:38:08.413Z,7.50
2023-05-07T20:40:37.938Z,6.45
2023-05-07T20:43:08.071Z,6.82
2023-05-07T20:45:35.252Z,9.48
2023-05-07T20:48:02.426Z,6.45
2023-05-07T20:50:29.975Z,6.00
2023-05-07T20:52:56.984Z,6.93
2023-05-07T20:55:23.908Z,6.30
2023-05-07T20:57:51.074Z,8.63
2023-05-07T21:00:18.830Z,10.38
2023-05-07T21:02:45.865Z,7.63
2023-05-07T21:05:12.980Z,7.97
2023-05-07T21:07:39.905Z,7.53
2023-05-07T21:10:07.391Z,8.55
2023-05-07T21:12:34.379Z,7.25
2023-05-07T21:15:01.459Z,11.77
2023-05-07T21:17:31.637Z,19.73
2023-05-07T21:19:59.030Z,27.58
2023-05-07T21:22:25.974Z,22.25
2023-05-07T21:24:52.991Z,12.02
2023-05-07T21:27:20.389Z,9.85
2023-05-07T21:29:47.673Z,9.63
2023-05-07T21:32:14.913Z,9.00
2023-05-07T21:34:42.064Z,11.38
2023-05-07T21:37:09.177Z,9.98
2023-05-07T21:39:39.374Z,8.60
2023-05-07T21:42:06.562Z,8.15
2023-05-07T21:44:33.548Z,11.05
2023-05-07T21:47:01.025Z,8.75
2023-05-07T21:49:28.426Z,9.00
2023-05-07T21:51:55.486Z,9.35
2023-05-07T21:54:22.411Z,13.68
2023-05-07T21:56:50.157Z,8.52
2023-05-07T21:59:17.375Z,9.18
2023-05-07T22:01:44.424Z,8.45
2023-05-07T22:04:11.579Z,8.85
2023-05-07T22:06:38.650Z,9.13
2023-05-07T22:09:05.827Z,11.57
2023-05-07T22:11:33.052Z,7.20
2023-05-07T22:14:00.697Z,9.48
2023-05-07T22:16:28.036Z,8.38
